Time;durP1;ratioP1;P1;durP2;ratioP2;P2;SDS_P1;SDS_P2;PMS_P1;PMS_P2;Temp;Humidity;BMP_temperature;BMP_pressure;BME280_temperature;BME280_humidity;BME280_pressure;Samples;Min_cycle;Max_cycle;Signal;HPM_P1;HPM_P2
2021/10/27 00:00:57;;;;;;;;;7.00;7.00;;;;;19.12;100.00;102044.66;5061093;28;45426;-80
2021/10/27 00:03:23;;;;;;;;;11.50;7.00;;;;;18.94;100.00;102044.38;5060425;28;45317;-81
2021/10/27 00:05:48;;;;;;;;;8.00;6.00;;;;;18.97;100.00;102038.78;5042112;28;47027;-81
2021/10/27 00:08:14;;;;;;;;;9.00;6.00;;;;;18.99;100.00;102046.69;5060409;28;45464;-80
2021/10/27 00:10:39;;;;;;;;;5.75;5.00;;;;;18.92;100.00;102042.81;5060802;28;45166;-81
2021/10/27 00:13:06;;;;;;;;;7.50;6.75;;;;;18.91;100.00;102038.44;5065273;28;45607;-81
2021/10/27 00:15:32;;;;;;;;;6.75;5.00;;;;;18.88;100.00;102042.19;5060970;28;45372;-80
2021/10/27 00:17:57;;;;;;;;;9.75;6.00;;;;;18.95;100.00;102046.06;5042837;28;45543;-81
2021/10/27 00:20:23;;;;;;;;;9.50;6.25;;;;;18.91;100.00;102050.00;5059960;28;45473;-81
2021/10/27 00:22:48;;;;;;;;;5.50;4.25;;;;;18.95;100.00;102047.91;5060088;28;45287;-81
2021/10/27 00:25:14;;;;;;;;;11.00;5.00;;;;;19.02;100.00;102051.78;5060015;28;45379;-82
2021/10/27 00:27:40;;;;;;;;;5.50;3.50;;;;;18.96;100.00;102047.78;5047551;28;45467;-81
2021/10/27 00:30:06;;;;;;;;;6.00;3.00;;;;;18.93;100.00;102058.75;5021384;28;45416;-81
2021/10/27 00:32:31;;;;;;;;;7.00;7.00;;;;;18.89;100.00;102048.41;5021693;28;45291;-81
2021/10/27 00:34:56;;;;;;;;;7.00;7.00;;;;;18.86;100.00;102051.31;5021775;28;46951;-81
2021/10/27 00:37:22;;;;;;;;;5.75;5.50;;;;;18.87;100.00;102059.22;5021855;28;45251;-81
2021/10/27 00:39:48;;;;;;;;;7.50;5.00;;;;;18.85;100.00;102052.28;5022218;28;45385;-82
2021/10/27 00:42:13;;;;;;;;;11.25;5.00;;;;;18.87;100.00;102048.53;5021769;28;45241;-81
2021/10/27 00:44:41;;;;;;;;;7.00;6.75;;;;;18.90;100.00;102060.81;5039613;28;45294;-81
2021/10/27 00:47:09;;;;;;;;;5.00;5.00;;;;;18.87;100.00;102051.19;5040024;28;45726;-81
2021/10/27 00:49:37;;;;;;;;;11.25;5.50;;;;;18.87;100.00;102061.06;5040069;28;45375;-81
2021/10/27 00:52:05;;;;;;;;;7.75;6.00;;;;;18.86;100.00;102054.84;5039806;28;45245;-82
2021/10/27 00:54:32;;;;;;;;;5.75;5.75;;;;;18.75;100.00;102052.22;5040509;28;46367;-82
2021/10/27 00:56:58;;;;;;;;;7.75;4.75;;;;;18.73;100.00;102058.66;5051057;28;45500;-82
2021/10/27 00:59:25;;;;;;;;;5.75;4.50;;;;;18.69;100.00;102063.41;5040251;28;45300;-82
2021/10/27 01:01:52;;;;;;;;;7.75;4.50;;;;;18.72;100.00;102055.13;5039605;28;45434;-82
2021/10/27 01:04:18;;;;;;;;;5.75;5.25;;;;;18.63;100.00;102056.72;5039452;28;45390;-82
2021/10/27 01:06:45;;;;;;;;;5.75;5.75;;;;;18.66;100.00;102064.50;5021407;28;45261;-81
2021/10/27 01:09:11;;;;;;;;;5.50;5.00;;;;;18.59;100.00;102047.25;5039563;28;45515;-82
2021/10/27 01:11:37;;;;;;;;;8.75;6.25;;;;;18.64;100.00;102055.75;5021350;28;45441;-81
2021/10/27 01:14:09;;;;;;;;;7.50;6.00;;;;;18.71;100.00;102060.59;5026118;28;46920;-82
2021/10/27 01:16:36;;;;;;;;;7.00;7.00;;;;;18.63;100.00;102053.22;5039277;28;45448;-81
2021/10/27 01:19:03;;;;;;;;;9.25;5.25;;;;;18.60;100.00;102048.94;5039374;28;45336;-82
2021/10/27 01:21:31;;;;;;;;;9.00;7.25;;;;;18.56;100.00;102047.47;5039071;28;45363;-82
2021/10/27 01:24:00;;;;;;;;;11.00;6.00;;;;;18.62;100.00;102048.81;5021583;28;47464;-82
2021/10/27 01:26:27;;;;;;;;;9.50;6.25;;;;;18.56;100.00;102042.13;5038933;28;45349;-82
2021/10/27 01:28:53;;;;;;;;;10.25;8.00;;;;;18.58;100.00;102042.84;5043607;28;45342;-82
2021/10/27 01:31:19;;;;;;;;;8.75;6.50;;;;;18.62;100.00;102052.34;5039197;28;45239;-81
2021/10/27 01:33:45;;;;;;;;;12.25;7.25;;;;;18.58;100.00;102047.34;5039305;28;45499;-82
2021/10/27 01:36:15;;;;;;;;;8.50;8.00;;;;;18.57;100.00;102049.19;5038813;28;45532;-82
2021/10/27 01:38:40;;;;;;;;;10.00;7.00;;;;;18.52;100.00;102045.16;5039395;28;45322;-82
2021/10/27 01:41:06;;;;;;;;;16.00;12.50;;;;;18.51;100.00;102038.94;5038691;28;45515;-82
2021/10/27 01:43:52;;;;;;;;;17.50;10.75;;;;;18.48;100.00;102036.50;5023236;28;45789;-81
2021/10/27 01:46:37;;;;;;;;;9.50;7.00;;;;;18.55;100.00;102034.22;5042606;28;45407;-82
2021/10/27 01:49:08;;;;;;;;;10.00;8.50;;;;;18.52;100.00;102029.94;5041992;28;45450;-81
2021/10/27 01:51:35;;;;;;;;;11.00;9.00;;;;;18.45;100.00;102022.56;5042146;28;45447;-81
2021/10/27 01:54:01;;;;;;;;;11.25;8.00;;;;;18.45;100.00;102025.22;5042076;28;45611;-81
2021/10/27 01:56:27;;;;;;;;;15.50;12.50;;;;;18.37;100.00;102025.84;5051922;28;45455;-81
2021/10/27 01:58:53;;;;;;;;;17.75;11.75;;;;;18.40;100.00;102024.72;5044576;28;45337;-81
2021/10/27 02:01:19;;;;;;;;;10.75;8.75;;;;;18.37;100.00;102015.16;5024282;28;45423;-81
2021/10/27 02:03:44;;;;;;;;;12.00;8.75;;;;;18.43;100.00;102011.97;5023897;28;47583;-81
2021/10/27 02:06:11;;;;;;;;;13.25;10.00;;;;;18.38;100.00;102006.16;5041925;28;45318;-81
2021/10/27 02:08:36;;;;;;;;;13.25;11.00;;;;;18.36;100.00;102005.41;5042580;28;45234;-81
2021/10/27 02:11:02;;;;;;;;;12.00;9.50;;;;;18.39;100.00;102013.19;5042850;28;45229;-81
2021/10/27 02:13:28;;;;;;;;;10.00;10.00;;;;;18.37;100.00;102001.78;5048056;28;45288;-81
2021/10/27 02:15:53;;;;;;;;;11.25;9.25;;;;;18.31;100.00;102002.25;5024302;28;45241;-81
2021/10/27 02:18:19;;;;;;;;;11.75;10.00;;;;;18.33;100.00;102002.97;5041552;28;45214;-81
2021/10/27 02:20:45;;;;;;;;;9.50;8.50;;;;;18.29;100.00;102001.53;5041599;28;45245;-81
2021/10/27 02:23:12;;;;;;;;;13.00;11.00;;;;;18.25;100.00;102000.06;5041672;28;45427;-81
2021/10/27 02:25:37;;;;;;;;;15.25;10.00;;;;;18.29;100.00;102006.88;5041538;28;45320;-82
2021/10/27 02:28:03;;;;;;;;;14.50;11.25;;;;;18.24;100.00;101999.22;5047660;28;45244;-81
2021/10/27 02:30:28;;;;;;;;;14.50;10.50;;;;;18.28;100.00;102010.53;5041670;28;45458;-81
2021/10/27 02:32:54;;;;;;;;;10.50;7.50;;;;;18.25;100.00;102006.28;5041622;28;46489;-81
2021/10/27 02:35:19;;;;;;;;;14.00;10.25;;;;;18.27;100.00;102011.50;5023669;28;45429;-82
2021/10/27 02:37:45;;;;;;;;;10.50;10.50;;;;;18.24;100.00;102014.41;5023685;28;45430;-81
2021/10/27 02:40:11;;;;;;;;;6.75;6.25;;;;;18.22;100.00;102009.19;5041619;28;46440;-81
2021/10/27 02:42:39;;;;;;;;;11.50;10.50;;;;;18.24;100.00;102014.41;5041334;28;46017;-82
2021/10/27 02:45:05;;;;;;;;;13.25;9.00;;;;;18.26;100.00;102015.16;5041887;28;45183;-82
2021/10/27 02:47:31;;;;;;;;;13.50;8.75;;;;;18.20;100.00;102002.28;5041943;28;45315;-81
2021/10/27 02:49:56;;;;;;;;;12.00;9.00;;;;;18.22;100.00;102011.00;5023788;28;45588;-82
2021/10/27 02:52:22;;;;;;;;;14.50;9.00;;;;;18.25;100.00;102005.41;5042063;28;45412;-82
2021/10/27 02:54:47;;;;;;;;;11.75;10.00;;;;;18.21;100.00;102006.63;5040775;28;45379;-82
2021/10/27 02:57:12;;;;;;;;;11.50;8.25;;;;;18.20;100.00;102012.97;5023035;28;45835;-82
2021/10/27 02:59:38;;;;;;;;;7.25;7.00;;;;;18.14;100.00;102010.75;5025520;28;45415;-82
2021/10/27 03:02:03;;;;;;;;;10.75;10.25;;;;;18.16;100.00;102012.34;5043176;28;45320;-82
2021/10/27 03:04:29;;;;;;;;;9.25;9.25;;;;;18.08;100.00;102005.91;5015675;28;45356;-82
2021/10/27 03:06:54;;;;;;;;;12.00;10.75;;;;;18.10;100.00;102006.66;5026149;28;45314;-81
2021/10/27 03:09:20;;;;;;;;;14.25;12.50;;;;;18.12;100.00;102002.03;5016357;28;45709;-81
2021/10/27 03:11:46;;;;;;;;;17.00;12.75;;;;;18.14;100.00;102011.63;5018848;28;47440;-81
2021/10/27 03:14:11;;;;;;;;;10.25;9.00;;;;;18.11;100.00;102000.34;5053646;28;44616;-82
2021/10/27 03:16:37;;;;;;;;;15.25;9.00;;;;;18.15;100.00;102009.78;5053236;28;44640;-82
2021/10/27 03:19:02;;;;;;;;;13.25;10.00;;;;;18.13;100.00;102001.03;5023472;28;45412;-82
2021/10/27 03:21:28;;;;;;;;;12.75;11.75;;;;;18.11;100.00;102000.34;5041079;28;45991;-82
2021/10/27 03:23:53;;;;;;;;;14.25;9.50;;;;;18.06;100.00;101989.13;5041441;28;45217;-82
2021/10/27 03:26:19;;;;;;;;;14.50;10.25;;;;;17.98;100.00;101991.56;5041224;28;45160;-82
2021/10/27 03:28:44;;;;;;;;;10.50;10.00;;;;;18.01;100.00;101996.69;5047708;28;45526;-82
2021/10/27 03:31:09;;;;;;;;;14.00;10.75;;;;;17.97;100.00;101987.19;5040039;28;47223;-82
2021/10/27 03:33:35;;;;;;;;;18.25;13.00;;;;;17.91;100.00;101983.19;5022804;28;45439;-81
2021/10/27 03:36:01;;;;;;;;;13.00;11.00;;;;;17.91;100.00;101991.22;5040668;28;45232;-82
2021/10/27 03:38:27;;;;;;;;;17.50;14.50;;;;;17.85;100.00;101986.31;5040583;28;45160;-82
2021/10/27 03:40:52;;;;;;;;;14.75;12.50;;;;;17.83;100.00;101994.50;5040422;28;46622;-82
2021/10/27 03:43:19;;;;;;;;;20.50;14.25;;;;;17.77;100.00;101983.41;5040869;28;45474;-82
2021/10/27 03:45:45;;;;;;;;;19.75;17.00;;;;;17.70;100.00;101990.19;5040523;28;45349;-82
2021/10/27 03:48:10;;;;;;;;;20.00;13.25;;;;;17.71;100.00;101994.59;5039048;28;45395;-82
2021/10/27 03:50:36;;;;;;;;;17.00;15.50;;;;;17.76;100.00;102003.06;5040086;28;45557;-82
2021/10/27 03:53:01;;;;;;;;;15.00;12.00;;;;;17.66;100.00;102002.97;5041009;28;45206;-83
2021/10/27 03:55:27;;;;;;;;;17.50;16.50;;;;;17.57;100.00;102004.47;5042324;28;45360;-82
2021/10/27 03:57:52;;;;;;;;;20.75;15.75;;;;;17.53;100.00;102011.03;5051643;28;45216;-81
2021/10/27 04:00:18;;;;;;;;;17.75;17.75;;;;;17.44;100.00;102009.06;5040393;28;45265;-81
2021/10/27 04:02:43;;;;;;;;;23.50;18.50;;;;;17.40;100.00;102007.56;5040922;28;45185;-81
2021/10/27 04:05:09;;;;;;;;;23.00;19.25;;;;;17.37;100.00;102006.97;5021397;28;45403;-81
2021/10/27 04:07:38;;;;;;;;;20.75;17.00;;;;;17.44;100.00;102002.88;5040891;28;45244;-81
2021/10/27 04:10:06;;;;;;;;;17.00;14.25;;;;;17.46;100.00;102000.94;5040455;28;46475;-81
2021/10/27 04:12:34;;;;;;;;;15.25;13.50;;;;;17.38;100.00;101993.53;5025142;28;45423;-82
2021/10/27 04:15:00;;;;;;;;;18.50;15.50;;;;;17.27;100.00;101984.63;5043313;28;45241;-82
2021/10/27 04:17:25;;;;;;;;;16.00;13.25;;;;;17.26;100.00;101990.91;5039983;28;45416;-82
2021/10/27 04:19:50;;;;;;;;;19.00;16.75;;;;;17.28;100.00;101987.16;5039493;28;46374;-81
2021/10/27 04:22:16;;;;;;;;;24.00;18.25;;;;;17.27;100.00;101984.63;5022001;28;45526;-81
2021/10/27 04:24:41;;;;;;;;;19.00;13.50;;;;;17.25;100.00;101995.41;5039998;28;45408;-82
2021/10/27 04:27:08;;;;;;;;;19.75;13.00;;;;;17.33;100.00;102008.16;5037108;28;45439;-81
2021/10/27 04:29:33;;;;;;;;;18.00;12.50;;;;;17.32;100.00;101998.44;5062865;28;45465;-81
2021/10/27 04:31:59;;;;;;;;;20.25;14.00;;;;;17.32;100.00;102001.97;5060024;28;45459;-81
2021/10/27 04:34:25;;;;;;;;;15.00;14.25;;;;;17.39;100.00;102013.06;5041398;28;45350;-81
2021/10/27 04:36:51;;;;;;;;;17.25;14.50;;;;;17.40;100.00;102006.72;5060205;28;45261;-81
2021/10/27 04:39:16;;;;;;;;;23.75;13.00;;;;;17.36;100.00;101998.13;5059593;28;45798;-82
2021/10/27 04:41:42;;;;;;;;;16.00;14.00;;;;;17.36;100.00;102008.78;5041762;28;45274;-81
2021/10/27 04:44:07;;;;;;;;;16.50;15.50;;;;;17.32;100.00;102004.63;5041970;28;45921;-82
2021/10/27 04:46:33;;;;;;;;;19.00;12.75;;;;;17.37;100.00;102017.66;5060262;28;45193;-82
2021/10/27 04:48:58;;;;;;;;;19.25;14.50;;;;;17.32;100.00;102007.31;5041709;28;45998;-81
2021/10/27 04:51:24;;;;;;;;;22.50;12.75;;;;;17.34;100.00;102009.88;5041423;28;45201;-81
2021/10/27 04:53:50;;;;;;;;;19.00;13.75;;;;;17.31;100.00;102010.09;5041607;28;45333;-82
2021/10/27 04:56:15;;;;;;;;;17.25;13.00;;;;;17.26;100.00;102006.94;5068073;28;45270;-81
2021/10/27 04:58:40;;;;;;;;;13.50;11.50;;;;;17.26;100.00;102009.59;5063330;28;46280;-81
2021/10/27 05:01:06;;;;;;;;;13.25;12.75;;;;;17.27;100.00;102011.31;5059655;28;45482;-82
2021/10/27 05:03:31;;;;;;;;;17.50;12.25;;;;;17.25;100.00;102010.56;5059515;28;45296;-81
2021/10/27 05:05:58;;;;;;;;;21.75;13.50;;;;;17.26;100.00;102013.13;5041342;28;45913;-82
2021/10/27 05:08:24;;;;;;;;;17.00;13.00;;;;;17.20;100.00;102013.59;5059163;28;46057;-81
2021/10/27 05:10:54;;;;;;;;;17.25;13.25;;;;;17.29;100.00;102022.72;5059449;28;45403;-82
2021/10/27 05:13:20;;;;;;;;;18.25;17.00;;;;;17.15;100.00;102005.06;5047388;28;45245;-81
2021/10/27 05:15:47;;;;;;;;;16.75;13.75;;;;;17.08;100.00;102012.69;5059481;28;45342;-82
2021/10/27 05:18:13;;;;;;;;;14.25;14.25;;;;;17.07;100.00;102012.81;5044240;28;48671;-82
2021/10/27 05:20:38;;;;;;;;;13.25;12.75;;;;;16.99;100.00;102009.84;5062719;28;45354;-82
2021/10/27 05:23:04;;;;;;;;;22.00;15.75;;;;;16.93;100.00;102016.50;5045077;28;45446;-81
2021/10/27 05:25:29;;;;;;;;;18.75;12.50;;;;;16.89;100.00;102001.69;5046219;28;45422;-81
2021/10/27 05:27:55;;;;;;;;;15.25;14.00;;;;;16.95;100.00;102011.03;5050181;28;46062;-81
2021/10/27 05:30:20;;;;;;;;;18.00;16.25;;;;;16.96;100.00;102002.91;5062868;28;45245;-81
2021/10/27 05:32:46;;;;;;;;;21.75;15.50;;;;;16.94;100.00;102004.00;5062917;28;45276;-82
2021/10/27 05:35:11;;;;;;;;;18.00;15.75;;;;;16.87;100.00;102005.41;5044411;28;45485;-82
2021/10/27 05:37:37;;;;;;;;;21.00;15.50;;;;;16.88;100.00;102010.66;5062411;28;46034;-81
2021/10/27 05:40:03;;;;;;;;;23.00;16.25;;;;;16.84;100.00;102004.66;5062561;28;45254;-81
2021/10/27 05:42:29;;;;;;;;;18.25;16.25;;;;;16.85;100.00;102002.84;5044637;28;45253;-81
2021/10/27 05:44:57;;;;;;;;;18.50;14.50;;;;;16.88;100.00;102005.31;5044624;28;45529;-81
2021/10/27 05:47:23;;;;;;;;;23.50;15.50;;;;;16.90;100.00;102000.72;5062337;28;45988;-82
2021/10/27 05:49:54;;;;;;;;;21.75;16.50;;;;;16.90;100.00;101990.03;5044502;28;45765;-81
2021/10/27 05:57:43;;;;;;;;;24.00;19.25;;;;;16.95;100.00;101995.03;4997662;28;45505;-82
2021/10/27 06:00:10;;;;;;;;;19.75;17.50;;;;;16.94;100.00;101998.66;5042407;28;45470;-81
2021/10/27 06:02:36;;;;;;;;;22.50;16.00;;;;;16.91;100.00;101994.41;5024596;28;45435;-81
2021/10/27 06:05:02;;;;;;;;;19.75;16.00;;;;;16.95;100.00;101990.53;5042482;28;45448;-82
2021/10/27 06:07:27;;;;;;;;;19.00;16.50;;;;;16.88;100.00;101986.63;5043031;28;46262;-83
2021/10/27 06:09:55;;;;;;;;;25.50;21.00;;;;;16.96;100.00;101994.06;5024278;28;45342;-81
2021/10/27 06:12:20;;;;;;;;;19.75;17.75;;;;;16.82;100.00;101987.09;5024541;28;45507;-81
2021/10/27 06:14:46;;;;;;;;;17.00;13.00;;;;;16.87;100.00;101984.91;5058525;28;45450;-81
2021/10/27 06:17:12;;;;;;;;;31.75;19.00;;;;;16.92;100.00;101989.94;5062191;28;46291;-81
2021/10/27 06:19:38;;;;;;;;;21.25;18.00;;;;;16.92;100.00;101993.47;5062725;28;45427;-81
2021/10/27 06:22:04;;;;;;;;;24.00;17.75;;;;;16.95;100.00;101995.88;5044739;28;45315;-82
2021/10/27 06:24:30;;;;;;;;;20.50;17.00;;;;;16.89;100.00;101993.69;5062000;28;45593;-82
2021/10/27 06:26:56;;;;;;;;;22.75;16.75;;;;;16.96;100.00;101997.59;5055577;28;45606;-81
2021/10/27 06:29:28;;;;;;;;;23.25;17.75;;;;;16.95;100.00;101995.88;5064905;28;45532;-82
2021/10/27 06:32:07;;;;;;;;;20.25;18.75;;;;;16.99;100.00;101992.03;5043993;28;45398;-82
2021/10/27 06:34:36;;;;;;;;;24.00;19.75;;;;;16.92;100.00;101998.78;5061771;28;45257;-81
2021/10/27 06:48:13;;;;;;;;;26.75;22.25;;;;;16.50;100.00;102002.75;5061409;28;45395;-81
2021/10/27 06:50:39;;;;;;;;;33.50;23.00;;;;;16.41;100.00;102003.41;5061300;28;45675;-82
2021/10/27 06:53:04;;;;;;;;;29.75;24.25;;;;;16.40;100.00;102015.03;5062352;28;45452;-82
2021/10/27 06:55:33;;;;;;;;;29.50;22.25;;;;;16.33;100.00;102019.94;5063569;28;45308;-81
2021/10/27 06:57:59;;;;;;;;;34.00;23.25;;;;;16.43;100.00;102022.81;5071310;28;45271;-82
2021/10/27 07:00:45;;;;;;;;;25.50;22.50;;;;;16.46;100.00;102022.59;5061529;28;45238;-82
2021/10/27 07:03:33;;;;;;;;;28.25;23.25;;;;;16.59;100.00;102026.06;5062190;28;45326;-82
2021/10/27 07:17:14;;;;;;;;;26.25;23.75;;;;;16.73;100.00;102028.63;5062105;28;45155;-82
2021/10/27 07:19:40;;;;;;;;;31.25;22.75;;;;;16.84;100.00;102035.88;5043271;28;47053;-81
2021/10/27 07:22:06;;;;;;;;;28.50;23.25;;;;;16.78;100.00;102034.47;5062281;28;45253;-81
2021/10/27 07:24:33;;;;;;;;;30.00;24.25;;;;;16.83;100.00;102036.81;5062080;28;45312;-82
2021/10/27 07:27:02;;;;;;;;;29.75;24.00;;;;;16.91;100.00;102041.59;5063815;28;45310;-82
2021/10/27 07:29:27;;;;;;;;;29.25;24.25;;;;;17.02;100.00;102050.53;5065061;28;45440;-81
2021/10/27 07:31:53;;;;;;;;;30.00;22.25;;;;;16.99;100.00;102044.53;5062633;28;45277;-82
2021/10/27 07:34:20;;;;;;;;;23.75;22.00;;;;;17.07;100.00;102053.69;5043705;28;45209;-81
2021/10/27 07:41:58;;;;;;;;;30.00;23.25;;;;;17.27;100.00;102054.88;5062038;28;45698;-82
2021/10/27 07:44:25;;;;;;;;;25.25;19.00;;;;;17.31;100.00;102061.69;5042473;28;45365;-81
2021/10/27 07:46:51;;;;;;;;;27.50;23.50;;;;;17.40;100.00;102052.13;5041796;28;45407;-82
2021/10/27 07:49:17;;;;;;;;;31.00;26.00;;;;;17.56;100.00;102066.03;5047294;28;45327;-82
2021/10/27 07:51:43;;;;;;;;;30.25;22.75;;;;;17.72;100.00;102068.41;5043843;28;45267;-83
2021/10/27 07:54:08;;;;;;;;;30.75;26.50;;;;;17.89;100.00;102067.97;5042939;28;45218;-83
2021/10/27 07:56:34;;;;;;;;;28.50;24.75;;;;;18.06;100.00;102063.97;5023266;28;45534;-82
2021/10/27 07:59:01;;;;;;;;;31.50;27.00;;;;;18.58;100.00;102074.13;5060192;28;46018;-83
2021/10/27 08:01:27;;;;;;;;;30.25;23.00;;;;;19.50;100.00;102070.13;5061107;28;45491;-83
2021/10/27 08:03:52;;;;;;;;;27.75;21.25;;;;;20.48;100.00;102061.59;5043018;28;45509;-83
2021/10/27 08:06:18;;;;;;;;;29.75;22.00;;;;;21.39;100.00;102059.66;5061032;28;45520;-83
2021/10/27 08:08:43;;;;;;;;;22.00;22.00;;;;;22.24;100.00;102056.94;5029949;28;47223;-83
2021/10/27 08:11:10;;;;;;;;;27.75;25.50;;;;;22.95;100.00;102057.16;5061889;28;45444;-81
2021/10/27 08:13:35;;;;;;;;;23.50;21.00;;;;;23.67;100.00;102067.81;5069732;28;45311;-82
2021/10/27 08:16:01;;;;;;;;;30.75;24.50;;;;;24.38;100.00;102062.25;5042377;28;45619;-82
2021/10/27 08:18:27;;;;;;;;;20.75;20.50;;;;;25.02;100.00;102057.25;5043689;28;46062;-83
2021/10/27 08:20:52;;;;;;;;;23.50;20.75;;;;;25.63;100.00;102046.00;5043173;28;45230;-83
2021/10/27 08:23:20;;;;;;;;;26.50;24.25;;;;;26.33;100.00;102054.31;5043443;28;45210;-83
2021/10/27 08:25:50;;;;;;;;;26.75;21.25;;;;;26.83;99.76;102046.66;5045326;28;45202;-83
2021/10/27 08:28:19;;;;;;;;;26.00;23.00;;;;;27.26;96.77;102052.47;5043544;28;45454;-83
2021/10/27 08:35:57;;;;;;;;;27.75;22.50;;;;;28.49;86.26;102042.13;5048149;28;45256;-83
2021/10/27 08:38:23;;;;;;;;;26.50;21.00;;;;;28.60;78.50;102034.31;5024661;28;46401;-84
2021/10/27 08:40:50;;;;;;;;;25.50;22.50;;;;;28.58;78.59;102049.16;5024355;28;45300;-84
2021/10/27 08:43:15;;;;;;;;;24.00;20.25;;;;;28.58;78.20;102030.97;5041993;28;45545;-83
2021/10/27 08:45:42;;;;;;;;;23.25;21.75;;;;;28.85;77.35;102037.59;5042082;28;45288;-83
2021/10/27 08:48:14;;;;;;;;;24.50;22.50;;;;;28.90;70.51;102032.41;5023391;28;48250;-83
2021/10/27 08:50:41;;;;;;;;;29.50;23.50;;;;;28.89;73.56;102043.47;5023270;28;45404;-84
2021/10/27 08:53:08;;;;;;;;;26.00;24.50;;;;;29.23;74.11;102034.59;5044895;28;45167;-84
2021/10/27 08:55:35;;;;;;;;;37.25;29.75;;;;;29.31;68.73;102039.94;5046905;28;45281;-83
2021/10/27 08:58:01;;;;;;;;;27.50;23.50;;;;;29.28;61.15;102035.72;5052293;28;46174;-84
2021/10/27 09:00:45;;;;;;;;;28.50;24.75;;;;;29.14;68.09;102033.03;5026277;28;45324;-84
2021/10/27 09:06:21;;;;;;;;;27.25;25.25;;;;;29.26;67.30;102036.94;5009546;28;45457;-83
2021/10/27 10:06:20;;;;;;;;;31.25;23.50;;;;;24.87;76.90;102027.28;5063590;28;45241;-84
2021/10/27 10:08:48;;;;;;;;;21.75;17.50;;;;;24.81;77.11;102031.50;5063535;28;45376;-83
2021/10/27 10:11:19;;;;;;;;;35.25;25.50;;;;;25.05;76.81;102038.81;5063377;28;46245;-84
2021/10/27 10:13:46;;;;;;;;;29.00;26.00;;;;;25.11;77.21;102032.78;5068566;28;45450;-84
2021/10/27 10:16:14;;;;;;;;;27.00;24.75;;;;;25.10;76.96;102039.19;5045520;28;45281;-83
2021/10/27 10:18:41;;;;;;;;;30.00;28.25;;;;;25.14;76.71;102031.56;5045144;28;45454;-84
2021/10/27 10:21:12;;;;;;;;;28.00;23.75;;;;;25.09;77.35;102037.50;5030085;28;45478;-82
2021/10/27 10:23:38;;;;;;;;;33.50;26.75;;;;;25.05;77.09;102036.13;5043077;28;46459;-83
2021/10/27 10:26:08;;;;;;;;;30.25;27.75;;;;;25.03;77.37;102043.59;5044375;28;45226;-83
2021/10/27 10:28:42;;;;;;;;;28.75;21.25;;;;;25.04;77.36;102039.84;5068261;28;45561;-84
2021/10/27 10:31:09;;;;;;;;;24.75;22.00;;;;;24.87;78.13;102040.78;5063212;28;45457;-83
2021/10/27 10:33:37;;;;;;;;;33.00;27.25;;;;;24.85;78.66;102049.09;5062907;28;46406;-84
2021/10/27 10:36:12;;;;;;;;;26.00;24.00;;;;;24.67;78.66;102048.34;5046567;28;44794;-83
2021/10/27 10:41:25;;;;;;;;;25.50;25.00;;;;;24.48;80.24;102045.91;5042346;28;45504;-83
2021/10/27 11:15:13;;;;;;;;;36.25;28.25;;;;;25.35;79.60;102026.53;5061336;28;45382;-82
2021/10/27 11:26:27;;;;;;;;;40.00;30.75;;;;;25.73;77.87;101995.25;5040866;28;45255;-82
2021/10/27 11:40:32;;;;;;;;;18.67;16.67;;;;;26.41;73.30;101979.28;5063160;28;45490;-81
2021/10/27 11:42:53;;;;;;;;;17.50;14.50;;;;;26.18;72.43;101975.66;5061838;28;45442;-81
2021/10/27 11:48:20;;;;;;;;;20.50;16.50;;;;;26.33;74.47;101976.63;5062874;28;45409;-82
2021/10/27 11:50:48;;;;;;;;;16.75;15.75;;;;;26.36;74.04;101975.44;5043915;28;47286;-82
2021/10/27 11:53:35;;;;;;;;;19.50;15.50;;;;;26.44;74.24;101965.41;5063116;28;45436;-80
2021/10/27 11:56:11;;;;;;;;;17.50;15.50;;;;;26.65;72.80;101970.19;5046754;28;45216;-81
2021/10/27 11:58:41;;;;;;;;;21.25;17.25;;;;;26.79;73.05;101961.28;5061082;28;45252;-81
2021/10/27 12:01:07;;;;;;;;;18.00;16.75;;;;;26.72;73.03;101960.31;5061241;28;45904;-83
2021/10/27 12:03:42;;;;;;;;;18.50;14.75;;;;;26.72;71.96;101946.75;5040642;28;45256;-84
2021/10/27 12:06:13;;;;;;;;;18.25;15.25;;;;;26.74;71.37;101947.44;5024721;28;45252;-83
2021/10/27 12:14:22;;;;;;;;;16.25;13.00;;;;;26.92;71.14;101936.31;5060888;28;45469;-82
2021/10/27 12:19:21;;;;;;;;;13.75;13.75;;;;;26.84;69.32;101922.81;5060094;28;45213;-83
2021/10/27 12:22:03;;;;;;;;;12.50;10.50;;;;;26.70;69.39;101918.16;5060243;28;46170;-83
2021/10/27 12:24:31;;;;;;;;;15.75;10.75;;;;;26.66;69.17;101909.56;5043144;28;45343;-82
2021/10/27 12:27:09;;;;;;;;;11.75;11.75;;;;;26.65;68.38;101905.16;5044530;28;45229;-82
2021/10/27 12:29:37;;;;;;;;;10.50;7.50;;;;;26.64;69.67;101899.91;5063390;28;44757;-83
2021/10/27 12:32:15;;;;;;;;;15.00;11.75;;;;;26.72;68.73;101906.13;5042066;28;47101;-82
2021/10/27 12:34:46;;;;;;;;;16.25;13.00;;;;;26.86;68.43;101892.81;5059928;28;45293;-82
2021/10/27 12:37:22;;;;;;;;;10.50;10.00;;;;;26.94;69.44;101900.91;5042104;28;45360;-82
2021/10/27 12:39:47;;;;;;;;;11.00;10.00;;;;;26.76;70.20;101890.34;5060226;28;45439;-82
2021/10/27 12:42:14;;;;;;;;;16.00;14.00;;;;;26.86;69.31;101882.78;5041646;28;47682;-83
2021/10/27 12:44:51;;;;;;;;;10.25;9.00;;;;;26.97;67.94;101882.38;5059946;28;45474;-82
2021/10/27 12:47:23;;;;;;;;;15.75;12.75;;;;;27.00;67.89;101884.75;5059850;28;45257;-82
2021/10/27 12:50:19;;;;;;;;;14.50;11.25;;;;;27.08;68.09;101872.97;5041538;28;45265;-82
2021/10/27 12:52:59;;;;;;;;;10.50;9.50;;;;;27.13;68.34;101871.38;5060290;28;45339;-82
2021/10/27 12:55:27;;;;;;;;;13.00;10.75;;;;;27.09;68.41;101872.78;5061561;28;45316;-82
2021/10/27 12:57:54;;;;;;;;;12.25;11.75;;;;;26.99;68.42;101869.50;5070670;28;45255;-82
2021/10/27 13:11:44;;;;;;;;;11.00;9.75;;;;;26.90;68.43;101851.59;5045465;28;45403;-82
2021/10/27 13:19:51;;;;;;;;;11.50;9.00;;;;;26.50;69.89;101846.50;5059787;28;45460;-82
2021/10/27 13:32:32;;;;;;;;;13.50;10.25;;;;;26.07;72.34;101821.72;5073287;28;45217;-82
2021/10/27 13:34:57;;;;;;;;;12.75;10.50;;;;;26.11;72.18;101830.34;5054491;28;47381;-82
2021/10/27 13:37:24;;;;;;;;;16.00;13.25;;;;;26.15;72.81;101809.97;5051270;28;45244;-81
2021/10/27 13:39:52;;;;;;;;;9.00;8.25;;;;;26.18;72.99;101813.19;5063875;28;45468;-81
2021/10/27 13:42:34;;;;;;;;;12.00;11.75;;;;;26.19;72.67;101811.31;5064361;28;45402;-81
2021/10/27 13:45:09;;;;;;;;;12.00;10.50;;;;;26.16;72.94;101814.38;5063257;28;46080;-81
2021/10/27 13:47:41;;;;;;;;;10.25;9.00;;;;;26.11;72.77;101804.09;5045025;28;45442;-81
2021/10/27 14:06:22;;;;;;;;;10.25;8.00;;;;;25.81;73.97;101789.56;5062420;28;45448;-81
2021/10/27 14:09:05;;;;;;;;;14.00;8.75;;;;;25.85;74.52;101780.06;5062433;28;45347;-81
2021/10/27 14:11:40;;;;;;;;;10.50;9.50;;;;;25.82;73.71;101780.44;5062562;28;45452;-81
2021/10/27 14:14:22;;;;;;;;;9.25;7.75;;;;;25.78;73.81;101773.66;5067564;28;45654;-81
2021/10/27 15:22:06;;;;;;;;;8.75;6.00;;;;;24.78;77.06;101725.66;5040920;28;45427;-81
2021/10/27 15:34:58;;;;;;;;;9.25;6.25;;;;;24.69;78.37;101726.69;5040366;28;45415;-81
2021/10/27 15:51:05;;;;;;;;;5.50;2.25;;;;;24.04;78.06;101713.19;5040624;28;45214;-81
2021/10/27 15:53:31;;;;;;;;;13.50;10.75;;;;;24.06;78.37;101719.28;5040395;28;45434;-81
2021/10/27 15:55:56;;;;;;;;;3.75;3.75;;;;;24.05;78.28;101713.03;5028211;28;45872;-81
2021/10/27 15:58:22;;;;;;;;;7.00;5.75;;;;;24.01;78.38;101718.97;5027799;28;45449;-81
2021/10/27 16:00:48;;;;;;;;;10.75;6.75;;;;;23.84;79.30;101713.56;5039523;28;45319;-81
2021/10/27 16:03:16;;;;;;;;;4.25;4.25;;;;;23.93;78.54;101711.69;5021756;28;47215;-81
2021/10/27 16:05:45;;;;;;;;;7.75;5.50;;;;;23.80;78.51;101706.78;5040295;28;45316;-81